Terminal Aerodrome Forecast
Issued by NWS

Home | Current Version | Previous Version | Graphics & Text | Print | Product List | Glossary On
Versions: 1 2 3 4 5 6 7 8 9 10 11 12 13 14 15 16 17 18 19 20
000
FTUS43 KGRB 162332
TAFAUW
TAF
KAUW 162332Z 1700/1724 09004KT P6SM -FZRA SCT025 OVC060
      TEMPO 1700/1701 3SM -SNPL BR BKN025
     FM170100 08005KT 3SM -FZRAPL BR OVC020
     FM170400 07004KT 1 1/2SM -FZRASN BR OVC009
     FM170800 03005KT 1 1/2SM -FZRAPL BR OVC006
     FM171500 36005KT 2SM -FZRASN BR OVC007
     FM171800 33006KT P6SM BKN025=

USA.gov is the U.S. government's official web portal to all federal, state and local government web resources and services.